createdAt,value
2023-02-19T00:01:12.726Z,17.45
2023-02-19T00:03:40.648Z,16.30
2023-02-19T00:06:09.972Z,16.33
2023-02-19T00:08:37.901Z,16.13
2023-02-19T00:11:06.979Z,14.93
2023-02-19T00:13:41.807Z,15.60
2023-02-19T00:16:19.509Z,17.17
2023-02-19T00:18:46.401Z,15.55
2023-02-19T00:21:13.559Z,15.90
2023-02-19T00:23:40.216Z,16.20
2023-02-19T00:26:18.233Z,14.35
2023-02-19T00:28:46.519Z,14.15
2023-02-19T00:31:24.680Z,13.35
2023-02-19T00:33:53.293Z,12.82
2023-02-19T00:36:20.302Z,13.00
2023-02-19T00:38:46.990Z,12.20
2023-02-19T00:41:14.948Z,12.38
2023-02-19T00:43:41.243Z,12.00
2023-02-19T00:46:07.588Z,11.13
2023-02-19T00:48:33.893Z,10.27
2023-02-19T00:51:00.192Z,9.85
2023-02-19T00:53:26.479Z,10.95
2023-02-19T00:55:52.779Z,11.63
2023-02-19T00:58:19.092Z,11.00
2023-02-19T01:00:45.388Z,10.50
2023-02-19T01:03:11.698Z,10.35
2023-02-19T01:05:38.011Z,12.05
2023-02-19T01:08:04.517Z,11.60
2023-02-19T01:10:30.929Z,12.55
2023-02-19T01:12:57.241Z,11.77
2023-02-19T01:15:23.559Z,13.32
2023-02-19T01:17:49.877Z,12.50
2023-02-19T01:20:16.354Z,11.43
2023-02-19T01:22:42.660Z,12.80
2023-02-19T01:25:08.954Z,11.27
2023-02-19T01:27:35.265Z,11.20
2023-02-19T01:30:01.703Z,10.63
2023-02-19T01:32:28.064Z,10.65
2023-02-19T01:34:54.374Z,9.57
2023-02-19T01:37:20.677Z,9.40
2023-02-19T01:39:47.570Z,8.77
2023-02-19T01:42:15.692Z,8.57
2023-02-19T01:44:44.986Z,8.10
2023-02-19T01:47:12.560Z,8.07
2023-02-19T01:49:47.098Z,8.05
2023-02-19T01:52:18.729Z,8.40
2023-02-19T01:54:46.559Z,8.95
2023-02-19T01:57:18.807Z,8.77
2023-02-19T01:59:47.829Z,9.63
2023-02-19T02:02:14.342Z,9.93
2023-02-19T02:04:40.677Z,10.23
2023-02-19T02:07:07.499Z,11.88
2023-02-19T02:09:33.791Z,11.40
2023-02-19T02:12:00.104Z,12.25
2023-02-19T02:14:30.048Z,12.45
2023-02-19T02:17:24.386Z,13.27
2023-02-19T02:20:32.086Z,13.75
2023-02-19T02:23:46.559Z,12.57
2023-02-19T02:26:34.188Z,12.75
2023-02-19T02:29:27.878Z,14.05
2023-02-19T02:31:58.883Z,13.23
2023-02-19T02:34:34.514Z,14.25
2023-02-19T02:37:03.416Z,13.55
2023-02-19T02:39:31.368Z,12.73
2023-02-19T02:41:59.922Z,13.43
2023-02-19T02:44:35.040Z,12.80
2023-02-19T02:47:03.753Z,13.20
2023-02-19T02:49:30.635Z,12.80
2023-02-19T02:51:58.214Z,13.65
2023-02-19T02:54:31.128Z,13.48
2023-02-19T02:56:59.340Z,14.15
2023-02-19T02:59:31.099Z,14.60
2023-02-19T03:02:02.928Z,14.45
2023-02-19T03:05:00.550Z,14.82
2023-02-19T03:07:31.720Z,14.48
2023-02-19T03:10:02.489Z,14.73
2023-02-19T03:12:30.647Z,15.05
2023-02-19T03:15:02.884Z,15.82
2023-02-19T03:17:32.597Z,15.88
2023-02-19T03:20:03.338Z,16.90
2023-02-19T03:22:33.588Z,17.25
2023-02-19T03:25:05.124Z,17.27
2023-02-19T03:27:34.449Z,17.83
2023-02-19T03:30:08.220Z,17.15
2023-02-19T03:32:59.711Z,17.17
2023-02-19T03:35:31.327Z,17.00
2023-02-19T03:38:08.731Z,18.02
2023-02-19T03:40:50.341Z,17.55
2023-02-19T03:43:40.814Z,17.73
2023-02-19T03:46:07.088Z,17.40
2023-02-19T03:48:35.828Z,17.55
2023-02-19T03:51:09.066Z,18.40
2023-02-19T03:53:52.108Z,16.38
2023-02-19T03:56:27.177Z,17.45
2023-02-19T03:59:02.730Z,17.90
2023-02-19T04:01:44.471Z,17.67
2023-02-19T04:04:21.761Z,17.52
2023-02-19T04:06:54.188Z,17.42
2023-02-19T04:09:23.159Z,17.48
2023-02-19T04:11:51.095Z,17.15
2023-02-19T04:14:35.493Z,17.17
2023-02-19T04:17:06.393Z,17.38
2023-02-19T04:19:37.411Z,16.92
2023-02-19T04:22:07.708Z,18.23
2023-02-19T04:24:41.485Z,17.70
2023-02-19T04:27:09.563Z,16.63
2023-02-19T04:29:37.752Z,17.85
2023-02-19T04:32:05.597Z,15.32
2023-02-19T04:34:31.932Z,15.73
2023-02-19T04:36:58.244Z,15.63
2023-02-19T04:39:24.613Z,15.05
2023-02-19T04:41:50.926Z,14.65
2023-02-19T04:44:17.250Z,14.35
2023-02-19T04:46:43.548Z,14.27
2023-02-19T04:49:10.113Z,14.15
2023-02-19T04:51:36.428Z,13.18
2023-02-19T04:54:02.746Z,13.93
2023-02-19T04:56:29.074Z,12.88
2023-02-19T04:58:55.621Z,12.98
2023-02-19T05:01:22.095Z,12.25
2023-02-19T05:03:48.399Z,12.50
2023-02-19T05:06:14.951Z,11.73
2023-02-19T05:08:41.744Z,11.85
2023-02-19T05:11:10.193Z,10.75
2023-02-19T05:13:37.049Z,11.07
2023-02-19T05:16:06.495Z,10.13
2023-02-19T05:18:33.459Z,9.38
2023-02-19T05:21:00.520Z,9.57
2023-02-19T05:23:28.199Z,8.45
2023-02-19T05:25:54.562Z,9.45
2023-02-19T05:28:21.191Z,8.85
2023-02-19T05:30:52.533Z,9.20
2023-02-19T05:33:20.596Z,7.78
2023-02-19T05:35:49.545Z,7.97
2023-02-19T05:38:17.255Z,8.20
2023-02-19T05:40:44.835Z,7.88
2023-02-19T05:43:12.691Z,7.95
2023-02-19T05:45:39.383Z,7.78
2023-02-19T05:48:07.022Z,7.45
2023-02-19T05:50:35.469Z,6.68
2023-02-19T05:53:03.138Z,6.97
2023-02-19T05:55:30.428Z,4.45
2023-02-19T05:57:56.738Z,4.30
2023-02-19T06:00:23.212Z,4.60
2023-02-19T06:02:49.648Z,5.15
2023-02-19T06:05:16.042Z,5.40
2023-02-19T06:07:42.341Z,5.10
2023-02-19T06:10:10.323Z,4.82
2023-02-19T06:12:37.378Z,4.40
2023-02-19T06:15:05.727Z,4.70
2023-02-19T06:17:33.462Z,4.85
2023-02-19T06:20:00.427Z,4.57
2023-02-19T06:22:27.696Z,4.72
2023-02-19T06:24:54.076Z,5.50
2023-02-19T06:27:20.383Z,4.00
2023-02-19T06:29:46.693Z,5.03
2023-02-19T06:32:13.063Z,5.22
2023-02-19T06:34:39.448Z,5.28
2023-02-19T06:37:05.741Z,5.28
2023-02-19T06:39:32.151Z,6.53
2023-02-19T06:41:58.728Z,6.53
2023-02-19T06:44:25.192Z,6.43
2023-02-19T06:46:55.183Z,6.57
2023-02-19T06:49:21.960Z,7.25
2023-02-19T06:51:48.350Z,6.80
2023-02-19T06:54:14.661Z,6.68
2023-02-19T06:56:41.788Z,6.72
2023-02-19T06:59:11.368Z,6.38
2023-02-19T07:01:39.314Z,4.75
2023-02-19T07:04:07.209Z,5.13
2023-02-19T07:06:35.188Z,4.10
2023-02-19T07:09:01.891Z,3.95
2023-02-19T07:11:33.297Z,3.25
2023-02-19T07:14:01.827Z,3.72
2023-02-19T07:16:28.620Z,3.58
2023-02-19T07:18:59.574Z,3.08
2023-02-19T07:21:27.160Z,3.20
2023-02-19T07:23:54.043Z,3.15
2023-02-19T07:26:21.594Z,2.90
2023-02-19T07:28:49.618Z,2.97
2023-02-19T07:31:17.788Z,3.58
2023-02-19T07:33:44.657Z,3.17
2023-02-19T07:36:11.994Z,3.40
2023-02-19T07:38:38.511Z,3.20
2023-02-19T07:41:06.529Z,2.90
2023-02-19T07:43:35.682Z,3.67
2023-02-19T07:46:13.212Z,6.43
2023-02-19T07:48:42.061Z,3.50
2023-02-19T07:51:14.882Z,2.50
2023-02-19T07:53:41.184Z,2.30
2023-02-19T07:56:08.707Z,2.42
2023-02-19T07:58:35.293Z,2.95
2023-02-19T08:01:14.437Z,8.65
2023-02-19T08:03:41.616Z,4.72
2023-02-19T08:06:08.575Z,4.00
2023-02-19T08:08:34.914Z,3.42
2023-02-19T08:11:02.683Z,3.60
2023-02-19T08:13:30.741Z,4.32
2023-02-19T08:16:19.951Z,4.03
2023-02-19T08:18:47.917Z,3.58
2023-02-19T08:21:14.785Z,3.13
2023-02-19T08:23:41.193Z,3.97
2023-02-19T08:26:07.638Z,3.28
2023-02-19T08:28:34.024Z,3.70
2023-02-19T08:31:02.895Z,4.00
2023-02-19T08:33:29.351Z,3.78
2023-02-19T08:35:56.075Z,4.38
2023-02-19T08:38:22.951Z,4.57
2023-02-19T08:40:49.259Z,4.57
2023-02-19T08:43:16.941Z,4.82
2023-02-19T08:45:45.071Z,5.13
2023-02-19T08:48:11.940Z,5.55
2023-02-19T08:50:38.811Z,4.45
2023-02-19T08:53:06.446Z,5.78
2023-02-19T08:55:33.723Z,6.72
2023-02-19T08:58:00.239Z,6.18
2023-02-19T09:00:26.552Z,5.22
2023-02-19T09:02:52.880Z,3.97
2023-02-19T09:05:19.289Z,4.07
2023-02-19T09:07:45.596Z,4.07
2023-02-19T09:10:13.573Z,3.65
2023-02-19T09:12:40.572Z,3.45
2023-02-19T09:15:07.529Z,3.63
2023-02-19T09:17:33.839Z,3.22
2023-02-19T09:20:00.174Z,3.67
2023-02-19T09:22:26.489Z,4.03
2023-02-19T09:24:52.849Z,3.90
2023-02-19T09:27:20.359Z,4.00
2023-02-19T09:29:46.875Z,4.50
2023-02-19T09:32:14.018Z,9.07
2023-02-19T09:34:40.696Z,5.00
2023-02-19T09:37:07.731Z,3.90
2023-02-19T09:39:34.686Z,4.57
2023-02-19T09:42:09.222Z,4.75
2023-02-19T09:44:38.993Z,16.00
2023-02-19T09:47:21.078Z,10.20
2023-02-19T09:49:49.434Z,18.88
2023-02-19T09:52:19.692Z,8.80
2023-02-19T09:54:47.464Z,7.45
2023-02-19T09:57:17.454Z,5.95
2023-02-19T10:00:06.745Z,6.97
2023-02-19T10:02:33.968Z,4.13
2023-02-19T10:05:00.389Z,3.67
2023-02-19T10:07:38.985Z,4.35
2023-02-19T10:10:14.369Z,5.40
2023-02-19T10:12:50.312Z,4.68
2023-02-19T10:15:22.359Z,3.70
2023-02-19T10:17:48.707Z,4.80
2023-02-19T10:20:17.507Z,5.70
2023-02-19T10:22:43.901Z,4.70
2023-02-19T10:25:14.748Z,3.90
2023-02-19T10:27:41.089Z,4.15
2023-02-19T10:30:18.223Z,4.10
2023-02-19T10:32:59.424Z,3.38
2023-02-19T10:35:26.310Z,4.30
2023-02-19T10:37:52.960Z,5.25
2023-02-19T10:40:22.574Z,6.07
2023-02-19T10:42:52.598Z,3.45
2023-02-19T10:45:23.069Z,4.63
2023-02-19T10:47:50.178Z,3.65
2023-02-19T10:50:26.044Z,3.58
2023-02-19T10:52:55.643Z,3.60
2023-02-19T10:55:37.789Z,4.13
2023-02-19T10:58:24.722Z,4.25
2023-02-19T11:01:10.947Z,2.90
2023-02-19T11:03:38.214Z,3.47
2023-02-19T11:06:07.592Z,3.53
2023-02-19T11:08:57.078Z,2.97
2023-02-19T11:11:35.766Z,2.85
2023-02-19T11:14:14.179Z,3.00
2023-02-19T11:16:44.528Z,3.28
2023-02-19T11:19:23.838Z,2.40
2023-02-19T11:21:50.451Z,2.58
2023-02-19T11:24:30.912Z,2.70
2023-02-19T11:26:58.395Z,2.67
2023-02-19T11:29:25.314Z,2.72
2023-02-19T11:31:51.743Z,4.18
2023-02-19T11:34:18.077Z,2.80
2023-02-19T11:36:44.387Z,2.90
2023-02-19T11:39:10.640Z,3.10
2023-02-19T11:41:55.418Z,3.38
2023-02-19T11:44:50.566Z,3.17
2023-02-19T11:47:39.655Z,3.38
2023-02-19T11:50:22.898Z,3.00
2023-02-19T11:53:03.482Z,3.15
2023-02-19T11:55:45.031Z,3.50
2023-02-19T11:58:36.208Z,2.50
2023-02-19T12:01:30.318Z,2.45
2023-02-19T12:04:35.293Z,2.60
2023-02-19T12:07:24.797Z,2.40
2023-02-19T12:10:13.082Z,2.45
2023-02-19T12:13:02.617Z,2.83
2023-02-19T12:15:58.455Z,4.13
2023-02-19T12:18:39.762Z,3.50
2023-02-19T12:21:21.312Z,3.65
2023-02-19T12:24:08.383Z,3.05
2023-02-19T12:26:40.721Z,2.92
2023-02-19T12:29:44.925Z,3.00
2023-02-19T12:32:39.626Z,2.42
2023-02-19T12:35:20.758Z,2.03
2023-02-19T12:38:18.306Z,2.22
2023-02-19T12:41:05.116Z,2.30
2023-02-19T12:43:33.671Z,2.00
2023-02-19T12:46:08.312Z,1.90
2023-02-19T12:48:43.803Z,2.42
2023-02-19T12:51:23.793Z,2.22
2023-02-19T12:54:01.356Z,1.73
2023-02-19T12:56:36.078Z,1.73
2023-02-19T12:59:13.725Z,2.10
2023-02-19T13:01:50.420Z,1.85
2023-02-19T13:04:22.590Z,1.70
2023-02-19T13:06:55.726Z,1.50
2023-02-19T13:09:33.884Z,1.48
2023-02-19T13:12:08.198Z,1.70
2023-02-19T13:14:39.936Z,1.63
2023-02-19T13:17:17.381Z,1.80
2023-02-19T13:19:48.586Z,1.95
2023-02-19T13:22:42.647Z,1.70
2023-02-19T13:25:09.859Z,1.50
2023-02-19T13:28:20.297Z,2.08
2023-02-19T13:31:05.345Z,1.95
2023-02-19T13:34:03.712Z,1.73
2023-02-19T13:36:31.084Z,1.80
2023-02-19T13:38:59.719Z,2.20
2023-02-19T13:41:40.216Z,1.80
2023-02-19T13:44:14.850Z,1.88
2023-02-19T13:46:46.190Z,1.55
2023-02-19T13:49:27.855Z,2.75
2023-02-19T13:51:59.167Z,4.07
2023-02-19T13:54:31.186Z,2.13
2023-02-19T13:57:17.725Z,1.17
2023-02-19T13:59:44.844Z,1.73
2023-02-19T14:02:21.682Z,1.55
2023-02-19T14:04:59.910Z,1.63
2023-02-19T14:07:48.212Z,3.10
2023-02-19T14:10:50.673Z,3.83
2023-02-19T14:13:51.260Z,2.60
2023-02-19T14:16:46.740Z,2.30
2023-02-19T14:19:42.209Z,2.15
2023-02-19T14:22:45.468Z,2.22
2023-02-19T14:25:29.153Z,3.00
2023-02-19T14:27:59.821Z,3.08
2023-02-19T14:30:27.620Z,2.50
2023-02-19T14:33:07.657Z,2.60
2023-02-19T14:35:40.895Z,7.18
2023-02-19T14:38:15.824Z,3.05
2023-02-19T14:43:14.184Z,2.28
2023-02-19T14:45:54.847Z,2.22
2023-02-19T14:48:38.207Z,2.47
2023-02-19T14:51:10.322Z,2.42
2023-02-19T14:53:44.146Z,2.38
2023-02-19T14:56:22.762Z,2.83
2023-02-19T14:59:12.013Z,2.83
2023-02-19T15:01:38.695Z,2.97
2023-02-19T15:04:06.141Z,2.83
2023-02-19T15:06:35.107Z,3.17
2023-02-19T15:09:06.913Z,3.28
2023-02-19T15:11:35.026Z,3.08
2023-02-19T15:14:07.050Z,3.20
2023-02-19T15:16:35.873Z,3.25
2023-02-19T15:19:06.217Z,3.83
2023-02-19T15:21:34.582Z,4.75
2023-02-19T15:24:03.832Z,4.63
2023-02-19T15:26:38.875Z,5.25
2023-02-19T15:29:11.950Z,5.70
2023-02-19T15:31:45.820Z,5.60
2023-02-19T15:34:17.220Z,5.73
2023-02-19T15:36:43.859Z,5.50
2023-02-19T15:39:25.240Z,5.72
2023-02-19T15:41:55.218Z,5.95
2023-02-19T15:44:29.499Z,6.03
2023-02-19T15:46:58.811Z,5.90
2023-02-19T15:49:40.977Z,5.20
2023-02-19T15:52:11.793Z,5.35
2023-02-19T15:54:52.604Z,6.07
2023-02-19T15:57:25.645Z,7.25
2023-02-19T16:00:02.718Z,6.30
2023-02-19T16:02:29.360Z,6.80
2023-02-19T16:04:56.326Z,7.22
2023-02-19T16:07:27.908Z,7.35
2023-02-19T16:10:18.426Z,7.10
2023-02-19T16:12:54.772Z,7.15
2023-02-19T16:15:21.225Z,7.28
2023-02-19T16:17:47.785Z,7.75
2023-02-19T16:20:22.604Z,11.00
2023-02-19T16:25:29.084Z,8.38
2023-02-19T16:27:55.969Z,15.10
2023-02-19T16:30:31.449Z,11.52
2023-02-19T16:33:20.153Z,8.43
2023-02-19T16:35:47.314Z,9.90
2023-02-19T16:38:15.332Z,8.35
2023-02-19T16:40:50.529Z,6.85
2023-02-19T16:43:37.506Z,6.68
2023-02-19T16:46:03.918Z,6.45
2023-02-19T16:48:30.341Z,7.30
2023-02-19T16:50:56.736Z,6.95
2023-02-19T16:53:24.482Z,6.57
2023-02-19T16:55:52.076Z,6.75
2023-02-19T16:58:18.431Z,6.70
2023-02-19T17:00:44.816Z,6.72
2023-02-19T17:03:15.212Z,6.35
2023-02-19T17:05:42.035Z,6.55
2023-02-19T17:08:29.726Z,6.32
2023-02-19T17:10:56.329Z,6.72
2023-02-19T17:13:22.668Z,6.10
2023-02-19T17:15:49.035Z,6.40
2023-02-19T17:18:15.634Z,6.30
2023-02-19T17:20:43.486Z,6.30
2023-02-19T17:23:09.779Z,6.47
2023-02-19T17:25:36.156Z,5.85
2023-02-19T17:28:02.484Z,6.00
2023-02-19T17:30:31.746Z,6.00
2023-02-19T17:32:58.141Z,6.15
2023-02-19T17:35:24.780Z,5.80
2023-02-19T17:37:53.393Z,5.40
2023-02-19T17:40:33.581Z,6.40
2023-02-19T17:43:00.590Z,6.38
2023-02-19T17:45:27.055Z,5.72
2023-02-19T17:47:53.407Z,6.70
2023-02-19T17:50:22.427Z,6.18
2023-02-19T17:52:48.814Z,6.20
2023-02-19T17:55:16.295Z,6.00
2023-02-19T17:57:42.586Z,5.40
2023-02-19T18:00:10.794Z,6.35
2023-02-19T18:02:37.129Z,7.53
2023-02-19T18:05:03.458Z,7.10
2023-02-19T18:07:29.790Z,7.35
2023-02-19T18:09:56.104Z,7.00
2023-02-19T18:12:22.421Z,7.82
2023-02-19T18:14:48.722Z,7.15
2023-02-19T18:17:15.044Z,7.30
2023-02-19T18:19:44.078Z,7.25
2023-02-19T18:22:10.663Z,8.00
2023-02-19T18:24:37.242Z,7.13
2023-02-19T18:27:03.572Z,6.85
2023-02-19T18:29:29.888Z,7.85
2023-02-19T18:31:56.498Z,7.38
2023-02-19T18:34:22.842Z,7.47
2023-02-19T18:36:49.533Z,6.90
2023-02-19T18:39:16.158Z,6.97
2023-02-19T18:41:46.686Z,6.82
2023-02-19T18:44:12.973Z,7.80
2023-02-19T18:46:39.288Z,7.18
2023-02-19T18:49:06.627Z,7.20
2023-02-19T18:51:32.935Z,7.00
2023-02-19T18:53:59.226Z,6.05
2023-02-19T18:56:25.521Z,6.38
2023-02-19T18:58:55.116Z,6.18
2023-02-19T19:01:21.808Z,5.80
2023-02-19T19:03:48.194Z,5.93
2023-02-19T19:06:18.066Z,5.90
2023-02-19T19:08:44.471Z,5.00
2023-02-19T19:11:11.251Z,5.20
2023-02-19T19:13:37.741Z,5.90
2023-02-19T19:16:04.340Z,5.07
2023-02-19T19:18:31.219Z,5.15
2023-02-19T19:20:58.010Z,5.20
2023-02-19T19:23:24.373Z,5.13
2023-02-19T19:25:50.672Z,4.90
2023-02-19T19:28:17.047Z,5.07
2023-02-19T19:30:43.490Z,5.45
2023-02-19T19:33:09.850Z,5.70
2023-02-19T19:35:36.244Z,5.85
2023-02-19T19:38:02.603Z,5.72
2023-02-19T19:40:28.914Z,5.55
2023-02-19T19:42:55.210Z,6.18
2023-02-19T19:45:21.789Z,6.47
2023-02-19T19:47:48.405Z,6.40
2023-02-19T19:50:16.497Z,6.90
2023-02-19T19:52:42.834Z,7.20
2023-02-19T19:55:09.620Z,7.28
2023-02-19T19:57:36.188Z,7.10
2023-02-19T20:00:02.922Z,9.07
2023-02-19T20:02:29.327Z,10.35
2023-02-19T20:04:55.705Z,13.48
2023-02-19T20:07:22.097Z,13.82
2023-02-19T20:09:49.653Z,12.73
2023-02-19T20:12:16.959Z,10.32
2023-02-19T20:14:44.475Z,9.05
2023-02-19T20:17:10.804Z,8.50
2023-02-19T20:19:37.237Z,9.32
2023-02-19T20:22:03.635Z,7.90
2023-02-19T20:24:30.673Z,8.35
2023-02-19T20:26:59.153Z,8.63
2023-02-19T20:29:26.620Z,8.80
2023-02-19T20:31:53.017Z,8.20
2023-02-19T20:34:19.372Z,9.15
2023-02-19T20:36:47.492Z,9.50
2023-02-19T20:39:15.838Z,9.15
2023-02-19T20:41:50.141Z,8.60
2023-02-19T20:44:17.302Z,9.80
2023-02-19T20:46:45.076Z,9.77
2023-02-19T20:49:12.681Z,8.85
2023-02-19T20:51:53.171Z,9.55
2023-02-19T20:54:22.231Z,9.02
2023-02-19T20:56:50.954Z,9.35
2023-02-19T20:59:18.292Z,9.05
2023-02-19T21:01:44.838Z,8.82
2023-02-19T21:04:12.119Z,9.75
2023-02-19T21:06:38.552Z,9.13
2023-02-19T21:09:05.349Z,8.48
2023-02-19T21:11:32.394Z,10.18
2023-02-19T21:13:58.728Z,9.93
2023-02-19T21:16:30.563Z,10.68
2023-02-19T21:18:57.402Z,9.95
2023-02-19T21:21:24.941Z,10.55
2023-02-19T21:23:52.467Z,9.93
2023-02-19T21:26:18.891Z,10.75
2023-02-19T21:28:45.256Z,10.65
2023-02-19T21:31:11.877Z,10.48
2023-02-19T21:33:38.252Z,9.98
2023-02-19T21:36:05.285Z,11.10
2023-02-19T21:38:32.725Z,10.10
2023-02-19T21:40:59.084Z,10.05
2023-02-19T21:43:25.391Z,9.05
2023-02-19T21:45:51.733Z,8.88
2023-02-19T21:48:18.069Z,8.50
2023-02-19T21:50:44.451Z,8.00
2023-02-19T21:53:11.171Z,8.07
2023-02-19T21:55:38.538Z,7.65
2023-02-19T21:58:04.921Z,8.23
2023-02-19T22:00:31.262Z,8.07
2023-02-19T22:02:57.663Z,7.00
2023-02-19T22:05:25.250Z,7.10
2023-02-19T22:07:51.610Z,6.88
2023-02-19T22:10:17.933Z,6.43
2023-02-19T22:12:44.244Z,6.25
2023-02-19T22:15:10.606Z,6.63
2023-02-19T22:17:36.896Z,6.13
2023-02-19T22:20:03.305Z,6.28
2023-02-19T22:22:29.618Z,5.25
2023-02-19T22:24:55.942Z,5.32
2023-02-19T22:27:22.277Z,6.10
2023-02-19T22:29:48.573Z,5.80
2023-02-19T22:32:15.140Z,4.93
2023-02-19T22:34:42.068Z,5.20
2023-02-19T22:37:09.275Z,5.00
2023-02-19T22:39:35.567Z,4.88
2023-02-19T22:42:01.985Z,5.15
2023-02-19T22:44:28.285Z,4.13
2023-02-19T22:46:55.995Z,5.07
2023-02-19T22:49:23.190Z,4.50
2023-02-19T22:51:53.456Z,4.53
2023-02-19T22:54:19.916Z,4.53
2023-02-19T22:56:46.237Z,5.82
2023-02-19T22:59:12.534Z,5.60
2023-02-19T23:01:38.870Z,6.45
2023-02-19T23:04:05.261Z,7.10
2023-02-19T23:06:34.370Z,8.10
2023-02-19T23:09:08.546Z,8.13
2023-02-19T23:11:38.286Z,8.10
2023-02-19T23:14:05.663Z,8.40
2023-02-19T23:16:32.262Z,8.70
2023-02-19T23:18:58.601Z,10.00
2023-02-19T23:21:24.897Z,9.10
2023-02-19T23:23:51.209Z,9.65
2023-02-19T23:26:17.719Z,8.30
2023-02-19T23:28:45.255Z,7.82
2023-02-19T23:31:12.077Z,8.80
2023-02-19T23:33:38.982Z,7.93
2023-02-19T23:36:05.925Z,8.10
2023-02-19T23:38:32.339Z,8.90
2023-02-19T23:40:59.124Z,7.97
2023-02-19T23:43:25.649Z,8.13
2023-02-19T23:45:51.981Z,7.95
2023-02-19T23:48:18.322Z,8.25
2023-02-19T23:50:44.830Z,8.50
2023-02-19T23:53:11.233Z,7.68
2023-02-19T23:55:37.550Z,7.78
2023-02-19T23:58:03.897Z,8.27
